createdAt,value
2023-05-07T00:00:35.604Z,98064.31
2023-05-07T00:03:39.489Z,98071.38
2023-05-07T00:06:42.514Z,98076.81
2023-05-07T00:09:45.524Z,98064.56
2023-05-07T00:12:48.502Z,98070.50
2023-05-07T00:15:51.332Z,98071.94
2023-05-07T00:18:54.124Z,98060.59
2023-05-07T00:21:57.396Z,98047.28
2023-05-07T00:25:00.707Z,98057.66
2023-05-07T00:28:05.102Z,98049.56
2023-05-07T00:31:07.786Z,98052.44
2023-05-07T00:34:10.735Z,98062.97
2023-05-07T00:37:13.484Z,98058.31
2023-05-07T00:40:16.144Z,98051.22
2023-05-07T00:43:18.912Z,98057.47
2023-05-07T00:46:22.722Z,98067.63
2023-05-07T00:49:39.351Z,98063.19
2023-05-07T00:52:43.337Z,98058.44
2023-05-07T00:55:46.300Z,98051.13
2023-05-07T00:58:49.811Z,98064.94
2023-05-07T01:01:53.377Z,98072.63
2023-05-07T01:04:57.010Z,98067.50
2023-05-07T01:08:00.862Z,98073.97
2023-05-07T01:11:03.833Z,98068.75
2023-05-07T01:14:06.837Z,98073.19
2023-05-07T01:17:09.791Z,98077.31
2023-05-07T01:20:13.647Z,98085.31
2023-05-07T01:23:18.907Z,98074.00
2023-05-07T01:26:23.605Z,98075.47
2023-05-07T01:29:26.803Z,98067.91
2023-05-07T01:32:53.007Z,98067.78
2023-05-07T01:35:56.112Z,98063.66
2023-05-07T01:39:00.052Z,98060.34
2023-05-07T01:42:03.010Z,98052.44
2023-05-07T01:45:06.805Z,98051.81
2023-05-07T01:48:11.535Z,98052.13
2023-05-07T01:51:14.409Z,98049.78
2023-05-07T01:54:17.973Z,98059.47
2023-05-07T01:57:20.733Z,98062.25
2023-05-07T02:00:23.763Z,98056.66
2023-05-07T02:03:27.354Z,98058.59
2023-05-07T02:06:39.134Z,98051.03
2023-05-07T02:09:43.717Z,98056.38
2023-05-07T02:12:48.308Z,98060.44
2023-05-07T02:15:51.895Z,98061.03
2023-05-07T02:18:55.150Z,98064.34
2023-05-07T02:21:57.985Z,98063.47
2023-05-07T02:25:06.216Z,98057.16
2023-05-07T02:28:09.044Z,98070.47
2023-05-07T02:31:19.701Z,98071.97
2023-05-07T02:34:22.711Z,98061.97
2023-05-07T02:37:25.550Z,98069.94
2023-05-07T02:40:28.685Z,98063.53
2023-05-07T02:43:31.464Z,98062.59
2023-05-07T02:46:34.569Z,98067.38
2023-05-07T02:49:42.125Z,98065.94
2023-05-07T02:52:45.336Z,98063.97
2023-05-07T02:55:48.065Z,98067.16
2023-05-07T02:58:50.690Z,98065.50
2023-05-07T03:01:55.197Z,98063.06
2023-05-07T03:04:57.978Z,98067.78
2023-05-07T03:08:00.868Z,98061.63
2023-05-07T03:11:03.852Z,98068.88
2023-05-07T03:14:06.650Z,98071.44
2023-05-07T03:17:09.405Z,98081.41
2023-05-07T03:20:13.101Z,98080.00
2023-05-07T03:23:17.402Z,98070.31
2023-05-07T03:26:20.082Z,98082.75
2023-05-07T03:29:22.887Z,98082.09
2023-05-07T03:32:26.289Z,98080.41
2023-05-07T03:35:29.447Z,98087.63
2023-05-07T03:38:32.552Z,98090.03
2023-05-07T03:41:35.486Z,98097.16
2023-05-07T03:44:38.440Z,98103.63
2023-05-07T03:47:41.391Z,98102.66
2023-05-07T03:50:45.956Z,98117.31
2023-05-07T03:53:49.254Z,98111.22
2023-05-07T03:56:52.308Z,98115.19
2023-05-07T03:59:55.256Z,98122.34
2023-05-07T04:02:58.093Z,98116.13
2023-05-07T04:06:03.592Z,98115.75
2023-05-07T04:09:09.348Z,98115.25
2023-05-07T04:12:14.670Z,98120.13
2023-05-07T04:15:17.632Z,98117.13
2023-05-07T04:18:21.300Z,98120.41
2023-05-07T04:21:25.569Z,98122.84
2023-05-07T04:24:28.390Z,98128.50
2023-05-07T04:27:31.291Z,98133.72
2023-05-07T04:30:33.979Z,98133.09
2023-05-07T04:33:39.369Z,98132.78
2023-05-07T04:36:44.737Z,98138.78
2023-05-07T04:39:50.228Z,98138.84
2023-05-07T04:42:54.578Z,98150.94
2023-05-07T04:45:58.138Z,98157.72
2023-05-07T04:49:03.354Z,98161.50
2023-05-07T04:52:06.353Z,98155.25
2023-05-07T04:55:10.133Z,98163.13
2023-05-07T04:58:15.540Z,98174.69
2023-05-07T05:01:19.934Z,98169.59
2023-05-07T05:04:25.660Z,98180.78
2023-05-07T05:07:28.860Z,98173.88
2023-05-07T05:10:31.931Z,98179.13
2023-05-07T05:13:34.716Z,98184.03
2023-05-07T05:16:43.537Z,98181.28
2023-05-07T05:19:47.004Z,98184.91
2023-05-07T05:22:50.168Z,98176.84
2023-05-07T05:26:00.134Z,98178.97
2023-05-07T05:29:06.361Z,98179.78
2023-05-07T05:32:09.208Z,98186.22
2023-05-07T05:35:12.776Z,98178.97
2023-05-07T05:38:17.010Z,98186.66
2023-05-07T05:41:19.824Z,98184.16
2023-05-07T05:44:22.886Z,98193.72
2023-05-07T05:47:25.904Z,98195.84
2023-05-07T05:50:31.717Z,98195.69
2023-05-07T05:53:35.741Z,98194.22
2023-05-07T05:56:39.335Z,98196.75
2023-05-07T05:59:42.426Z,98196.59
2023-05-07T06:02:45.408Z,98200.50
2023-05-07T06:05:51.658Z,98195.41
2023-05-07T06:08:59.580Z,98198.50
2023-05-07T06:12:10.038Z,98200.88
2023-05-07T06:15:13.402Z,98200.03
2023-05-07T06:18:17.555Z,98205.13
2023-05-07T06:21:20.959Z,98202.59
2023-05-07T06:24:25.287Z,98206.56
2023-05-07T06:27:29.407Z,98205.38
2023-05-07T06:30:33.074Z,98200.09
2023-05-07T06:33:36.411Z,98202.38
2023-05-07T06:36:39.647Z,98207.31
2023-05-07T06:39:51.330Z,98202.38
2023-05-07T06:42:54.510Z,98203.72
2023-05-07T06:46:20.130Z,98200.88
2023-05-07T06:49:23.597Z,98200.69
2023-05-07T06:52:28.342Z,98193.28
2023-05-07T06:55:32.316Z,98182.09
2023-05-07T06:58:35.837Z,98192.13
2023-05-07T07:01:39.190Z,98197.88
2023-05-07T07:04:43.962Z,98196.47
2023-05-07T07:07:54.031Z,98197.31
2023-05-07T07:10:59.242Z,98203.81
2023-05-07T07:14:02.607Z,98198.88
2023-05-07T07:17:08.400Z,98207.19
2023-05-07T07:20:12.445Z,98211.31
2023-05-07T07:23:17.051Z,98210.09
2023-05-07T07:26:19.892Z,98212.56
2023-05-07T07:29:22.887Z,98216.47
2023-05-07T07:32:26.058Z,98212.06
2023-05-07T07:35:31.598Z,98222.06
2023-05-07T07:38:35.482Z,98232.81
2023-05-07T07:41:39.138Z,98225.09
2023-05-07T07:44:43.051Z,98237.25
2023-05-07T07:47:48.786Z,98229.25
2023-05-07T07:50:55.322Z,98235.41
2023-05-07T07:53:59.398Z,98235.84
2023-05-07T07:57:03.283Z,98237.50
2023-05-07T08:00:10.223Z,98234.41
2023-05-07T08:03:21.207Z,98232.59
2023-05-07T08:06:28.657Z,98256.00
2023-05-07T08:09:32.142Z,98239.13
2023-05-07T08:12:36.969Z,98242.31
2023-05-07T08:15:40.100Z,98246.84
2023-05-07T08:18:43.628Z,98252.88
2023-05-07T08:21:49.034Z,98250.13
2023-05-07T08:24:54.957Z,98246.06
2023-05-07T08:27:58.526Z,98237.66
2023-05-07T08:31:02.422Z,98241.00
2023-05-07T08:34:10.412Z,98244.38
2023-05-07T08:37:17.045Z,98235.41
2023-05-07T08:40:23.565Z,98249.22
2023-05-07T08:43:29.119Z,98239.84
2023-05-07T08:46:33.698Z,98247.03
2023-05-07T08:49:36.978Z,98254.72
2023-05-07T08:52:42.162Z,98245.38
2023-05-07T08:55:45.370Z,98247.00
2023-05-07T08:58:49.465Z,98244.78
2023-05-07T09:01:52.908Z,98245.66
2023-05-07T09:04:56.798Z,98248.91
2023-05-07T09:08:04.724Z,98244.19
2023-05-07T09:11:07.721Z,98239.81
2023-05-07T09:14:10.779Z,98248.31
2023-05-07T09:17:18.462Z,98241.38
2023-05-07T09:20:21.890Z,98244.38
2023-05-07T09:23:25.308Z,98239.13
2023-05-07T09:26:29.507Z,98243.47
2023-05-07T09:29:36.818Z,98246.25
2023-05-07T09:32:41.690Z,98243.91
2023-05-07T09:35:53.224Z,98238.13
2023-05-07T09:38:58.163Z,98248.63
2023-05-07T09:42:02.768Z,98248.03
2023-05-07T09:45:10.500Z,98235.56
2023-05-07T09:48:18.743Z,98244.53
2023-05-07T09:51:51.727Z,98232.28
2023-05-07T09:55:00.581Z,98227.31
2023-05-07T09:58:06.986Z,98227.00
2023-05-07T10:01:12.177Z,98229.41
2023-05-07T10:04:16.824Z,98235.78
2023-05-07T10:07:22.326Z,98233.44
2023-05-07T10:10:29.479Z,98245.13
2023-05-07T10:13:34.350Z,98227.25
2023-05-07T10:16:38.132Z,98233.94
2023-05-07T10:19:46.512Z,98230.13
2023-05-07T10:22:50.833Z,98225.38
2023-05-07T10:26:01.367Z,98234.00
2023-05-07T10:29:26.841Z,98233.00
2023-05-07T10:32:47.472Z,98230.16
2023-05-07T10:36:00.662Z,98245.16
2023-05-07T10:39:04.351Z,98240.03
2023-05-07T10:42:14.598Z,98235.75
2023-05-07T10:45:24.046Z,98249.03
2023-05-07T10:48:30.728Z,98237.97
2023-05-07T10:51:40.253Z,98240.53
2023-05-07T10:55:21.208Z,98243.59
2023-05-07T10:58:36.228Z,98240.22
2023-05-07T11:02:00.271Z,98239.47
2023-05-07T11:05:24.077Z,98237.34
2023-05-07T11:09:00.858Z,98230.22
2023-05-07T11:12:18.331Z,98230.69
2023-05-07T11:15:40.027Z,98237.25
2023-05-07T11:18:56.948Z,98229.19
2023-05-07T11:22:09.805Z,98230.72
2023-05-07T11:25:21.623Z,98234.38
2023-05-07T11:28:32.412Z,98244.41
2023-05-07T11:31:39.927Z,98230.56
2023-05-07T11:34:43.616Z,98231.31
2023-05-07T11:37:47.167Z,98239.72
2023-05-07T11:40:55.826Z,98247.88
2023-05-07T11:44:00.005Z,98249.00
2023-05-07T11:47:03.534Z,98248.75
2023-05-07T11:50:09.128Z,98251.53
2023-05-07T11:53:14.267Z,98248.75
2023-05-07T11:56:18.559Z,98264.94
2023-05-07T11:59:21.484Z,98271.19
2023-05-07T12:02:26.449Z,98274.38
2023-05-07T12:05:30.640Z,98268.38
2023-05-07T12:08:34.269Z,98265.19
2023-05-07T12:11:41.276Z,98274.84
2023-05-07T12:14:45.659Z,98268.56
2023-05-07T12:17:48.662Z,98274.53
2023-05-07T12:20:52.239Z,98267.22
2023-05-07T12:23:55.365Z,98279.03
2023-05-07T12:26:58.388Z,98281.50
2023-05-07T12:30:03.527Z,98279.28
2023-05-07T12:33:06.482Z,98273.94
2023-05-07T12:36:09.724Z,98277.44
2023-05-07T12:39:12.616Z,98288.75
2023-05-07T12:42:21.239Z,98283.00
2023-05-07T12:45:24.309Z,98289.53
2023-05-07T12:48:29.819Z,98286.03
2023-05-07T12:51:32.687Z,98305.31
2023-05-07T12:54:39.282Z,98282.59
2023-05-07T12:57:43.787Z,98283.72
2023-05-07T13:00:49.659Z,98281.19
2023-05-07T13:03:52.897Z,98276.63
2023-05-07T13:06:56.012Z,98289.34
2023-05-07T13:09:59.090Z,98269.06
2023-05-07T13:13:02.030Z,98264.81
2023-05-07T13:16:06.581Z,98289.13
2023-05-07T13:19:09.381Z,98271.97
2023-05-07T13:22:12.393Z,98273.28
2023-05-07T13:25:15.546Z,98278.31
2023-05-07T13:28:19.085Z,98274.34
2023-05-07T13:31:22.505Z,98290.88
2023-05-07T13:34:25.245Z,98282.00
2023-05-07T13:37:28.456Z,98282.47
2023-05-07T13:40:31.760Z,98286.38
2023-05-07T13:43:34.984Z,98282.28
2023-05-07T13:46:37.849Z,98283.19
2023-05-07T13:49:40.542Z,98284.44
2023-05-07T13:52:46.945Z,98281.84
2023-05-07T13:55:50.125Z,98282.56
2023-05-07T13:59:00.071Z,98291.69
2023-05-07T14:02:03.892Z,98282.69
2023-05-07T14:05:06.872Z,98294.69
2023-05-07T14:08:09.773Z,98285.34
2023-05-07T14:11:12.841Z,98293.75
2023-05-07T14:14:18.079Z,98291.19
2023-05-07T14:17:21.547Z,98288.63
2023-05-07T14:20:24.385Z,98281.09
2023-05-07T14:23:27.978Z,98275.94
2023-05-07T14:26:31.049Z,98275.47
2023-05-07T14:29:34.357Z,98279.16
2023-05-07T14:32:37.482Z,98276.75
2023-05-07T14:35:40.714Z,98280.69
2023-05-07T14:38:43.594Z,98271.97
2023-05-07T14:41:46.395Z,98281.50
2023-05-07T14:44:50.229Z,98278.25
2023-05-07T14:47:53.362Z,98296.53
2023-05-07T14:50:57.418Z,98292.31
2023-05-07T14:54:00.565Z,98282.16
2023-05-07T14:57:03.840Z,98290.56
2023-05-07T15:00:08.353Z,98303.81
2023-05-07T15:03:11.918Z,98290.97
2023-05-07T15:06:17.931Z,98296.53
2023-05-07T15:09:21.266Z,98294.59
2023-05-07T15:12:24.312Z,98311.16
2023-05-07T15:15:27.462Z,98299.84
2023-05-07T15:18:33.932Z,98309.44
2023-05-07T15:21:37.887Z,98319.22
2023-05-07T15:24:42.404Z,98330.22
2023-05-07T15:27:45.378Z,98328.56
2023-05-07T15:30:48.361Z,98312.69
2023-05-07T15:33:53.335Z,98314.19
2023-05-07T15:36:58.124Z,98304.78
2023-05-07T15:40:03.502Z,98304.09
2023-05-07T15:43:06.265Z,98301.75
2023-05-07T15:46:09.065Z,98308.41
2023-05-07T15:49:12.042Z,98323.97
2023-05-07T15:52:16.316Z,98305.16
2023-05-07T15:55:19.765Z,98320.59
2023-05-07T15:58:22.933Z,98318.34
2023-05-07T16:01:26.260Z,98329.88
2023-05-07T16:04:29.120Z,98321.84
2023-05-07T16:07:32.250Z,98323.75
2023-05-07T16:10:35.116Z,98282.50
2023-05-07T16:13:38.436Z,98309.41
2023-05-07T16:16:41.443Z,98308.06
2023-05-07T16:19:44.656Z,98294.53
2023-05-07T16:22:47.439Z,98291.50
2023-05-07T16:25:50.444Z,98292.47
2023-05-07T16:28:53.475Z,98303.53
2023-05-07T16:31:58.480Z,98312.63
2023-05-07T16:35:01.503Z,98311.88
2023-05-07T16:38:10.388Z,98306.47
2023-05-07T16:41:13.991Z,98311.22
2023-05-07T16:44:17.962Z,98307.03
2023-05-07T16:47:21.714Z,98318.88
2023-05-07T16:50:24.998Z,98309.41
2023-05-07T16:53:28.090Z,98306.25
2023-05-07T16:56:31.094Z,98326.56
2023-05-07T16:59:34.100Z,98318.59
2023-05-07T17:02:37.071Z,98319.38
2023-05-07T17:05:40.396Z,98316.91
2023-05-07T17:08:43.396Z,98323.13
2023-05-07T17:11:46.445Z,98326.75
2023-05-07T17:14:49.564Z,98333.34
2023-05-07T17:17:52.722Z,98330.66
2023-05-07T17:20:55.737Z,98333.47
2023-05-07T17:23:58.460Z,98338.72
2023-05-07T17:27:01.372Z,98338.63
2023-05-07T17:30:04.564Z,98341.00
2023-05-07T17:33:19.989Z,98341.16
2023-05-07T17:36:23.982Z,98346.84
2023-05-07T17:39:26.868Z,98344.28
2023-05-07T17:42:30.222Z,98346.41
2023-05-07T17:45:33.457Z,98356.56
2023-05-07T17:48:36.203Z,98350.19
2023-05-07T17:51:52.501Z,98350.50
2023-05-07T17:54:56.302Z,98358.25
2023-05-07T17:57:59.229Z,98364.34
2023-05-07T18:01:02.166Z,98359.34
2023-05-07T18:04:05.274Z,98369.59
2023-05-07T18:07:08.260Z,98380.06
2023-05-07T18:10:11.910Z,98376.44
2023-05-07T18:13:15.115Z,98380.56
2023-05-07T18:16:19.576Z,98380.50
2023-05-07T18:19:22.661Z,98389.31
2023-05-07T18:22:25.421Z,98382.63
2023-05-07T18:25:28.480Z,98395.78
2023-05-07T18:28:31.394Z,98394.41
2023-05-07T18:31:36.764Z,98395.44
2023-05-07T18:34:40.782Z,98400.91
2023-05-07T18:37:43.569Z,98399.16
2023-05-07T18:40:47.840Z,98404.91
2023-05-07T18:43:51.122Z,98423.25
2023-05-07T18:46:53.894Z,98415.19
2023-05-07T18:49:56.940Z,98424.75
2023-05-07T18:53:00.131Z,98426.53
2023-05-07T18:56:03.527Z,98429.06
2023-05-07T18:59:06.486Z,98433.09
2023-05-07T19:02:09.343Z,98436.09
2023-05-07T19:05:12.413Z,98438.84
2023-05-07T19:08:18.385Z,98444.47
2023-05-07T19:11:22.171Z,98461.81
2023-05-07T19:14:25.382Z,98476.06
2023-05-07T19:17:28.407Z,98461.13
2023-05-07T19:20:31.401Z,98468.13
2023-05-07T19:23:34.835Z,98470.28
2023-05-07T19:26:37.706Z,98478.00
2023-05-07T19:29:41.130Z,98478.59
2023-05-07T19:32:44.010Z,98471.72
2023-05-07T19:35:46.963Z,98480.28
2023-05-07T19:38:53.371Z,98477.91
2023-05-07T19:41:56.688Z,98477.41
2023-05-07T19:44:59.497Z,98482.41
2023-05-07T19:48:04.855Z,98475.75
2023-05-07T19:51:07.852Z,98474.69
2023-05-07T19:54:11.091Z,98478.34
2023-05-07T19:57:14.768Z,98492.50
2023-05-07T20:00:23.714Z,98484.53
2023-05-07T20:03:26.805Z,98490.09
2023-05-07T20:06:29.830Z,98484.31
2023-05-07T20:09:33.030Z,98483.94
2023-05-07T20:12:36.057Z,98498.28
2023-05-07T20:15:39.316Z,98480.97
2023-05-07T20:18:42.237Z,98495.66
2023-05-07T20:21:45.055Z,98493.16
2023-05-07T20:24:48.043Z,98493.75
2023-05-07T20:27:51.134Z,98508.72
2023-05-07T20:30:54.303Z,98503.19
2023-05-07T20:33:57.648Z,98505.44
2023-05-07T20:37:00.671Z,98519.19
2023-05-07T20:40:05.047Z,98525.13
2023-05-07T20:43:08.419Z,98530.81
2023-05-07T20:46:11.375Z,98532.81
2023-05-07T20:49:14.274Z,98533.88
2023-05-07T20:52:17.577Z,98530.75
2023-05-07T20:55:20.514Z,98529.09
2023-05-07T20:58:27.151Z,98528.50
2023-05-07T21:01:30.049Z,98535.59
2023-05-07T21:04:33.299Z,98536.94
2023-05-07T21:07:36.325Z,98535.00
2023-05-07T21:10:39.482Z,98539.97
2023-05-07T21:13:42.448Z,98538.78
2023-05-07T21:16:45.548Z,98539.53
2023-05-07T21:19:50.138Z,98540.22
2023-05-07T21:22:52.876Z,98531.66
2023-05-07T21:25:55.632Z,98535.00
2023-05-07T21:28:58.397Z,98538.34
2023-05-07T21:32:01.196Z,98538.94
2023-05-07T21:35:04.348Z,98536.19
2023-05-07T21:38:07.270Z,98542.47
2023-05-07T21:41:10.457Z,98544.81
2023-05-07T21:44:13.402Z,98542.81
2023-05-07T21:47:16.116Z,98548.00
2023-05-07T21:50:19.577Z,98544.78
2023-05-07T21:53:22.371Z,98548.44
2023-05-07T21:56:25.439Z,98541.09
2023-05-07T21:59:28.190Z,98545.50
2023-05-07T22:02:31.045Z,98537.06
2023-05-07T22:05:33.977Z,98545.78
2023-05-07T22:08:36.752Z,98548.50
2023-05-07T22:11:39.605Z,98547.16
2023-05-07T22:14:42.455Z,98551.91
2023-05-07T22:17:45.369Z,98552.13
2023-05-07T22:20:51.659Z,98543.13
2023-05-07T22:23:54.408Z,98544.09
2023-05-07T22:26:57.157Z,98549.31
2023-05-07T22:29:59.886Z,98548.13
2023-05-07T22:33:02.658Z,98552.13
2023-05-07T22:36:05.953Z,98545.97
2023-05-07T22:39:10.305Z,98554.50
2023-05-07T22:42:13.043Z,98549.34
2023-05-07T22:45:16.094Z,98551.75
2023-05-07T22:48:18.903Z,98549.94
2023-05-07T22:51:21.923Z,98553.00
2023-05-07T22:54:25.691Z,98552.78
2023-05-07T22:57:28.472Z,98539.00
2023-05-07T23:00:31.302Z,98547.78
2023-05-07T23:03:34.233Z,98536.75
2023-05-07T23:06:37.024Z,98544.03
2023-05-07T23:09:40.092Z,98539.66
2023-05-07T23:12:43.346Z,98541.16
2023-05-07T23:15:46.607Z,98534.91
2023-05-07T23:18:49.882Z,98533.97
2023-05-07T23:21:53.669Z,98528.97
2023-05-07T23:24:56.845Z,98521.16
2023-05-07T23:27:59.496Z,98530.19
2023-05-07T23:31:02.452Z,98522.97
2023-05-07T23:34:05.303Z,98532.56
2023-05-07T23:37:10.399Z,98537.56
2023-05-07T23:40:13.467Z,98525.09
2023-05-07T23:43:16.459Z,98518.59
2023-05-07T23:46:20.099Z,98522.16
2023-05-07T23:49:22.745Z,98523.59
2023-05-07T23:52:25.514Z,98522.59
2023-05-07T23:55:28.264Z,98519.03
2023-05-07T23:58:31.210Z,98515.19
